createdAt,value
2018-07-21T00:00:29.020Z,0
2018-07-21T00:01:37.678Z,0
2018-07-21T00:02:46.325Z,0
2018-07-21T00:03:54.977Z,0
2018-07-21T00:05:03.621Z,0
2018-07-21T00:06:12.269Z,0
2018-07-21T00:07:20.922Z,0
2018-07-21T00:08:29.575Z,0
2018-07-21T00:09:38.225Z,0
2018-07-21T00:10:46.870Z,0
2018-07-21T00:11:55.522Z,0
2018-07-21T00:13:04.168Z,0
2018-07-21T00:14:12.914Z,0
2018-07-21T00:15:21.471Z,0
2018-07-21T00:16:30.127Z,0
2018-07-21T00:17:39.030Z,0
2018-07-21T00:18:47.687Z,0
2018-07-21T00:19:56.327Z,0
2018-07-21T00:21:04.981Z,0
2018-07-21T00:22:13.630Z,0
2018-07-21T00:23:22.285Z,0
2018-07-21T00:24:30.932Z,0
2018-07-21T00:25:39.580Z,0
2018-07-21T00:26:48.495Z,0
2018-07-21T00:27:57.141Z,0
2018-07-21T00:29:05.796Z,0
2018-07-21T00:30:14.446Z,0
2018-07-21T00:31:23.098Z,0
2018-07-21T00:32:31.743Z,0
2018-07-21T00:33:40.392Z,0
2018-07-21T00:34:49.044Z,0
2018-07-21T00:35:57.696Z,0
2018-07-21T00:37:06.344Z,0
2018-07-21T00:38:14.998Z,0
2018-07-21T00:39:23.645Z,0
2018-07-21T00:40:32.296Z,0
2018-07-21T00:41:40.940Z,0
2018-07-21T00:42:49.590Z,0
2018-07-21T00:43:58.238Z,0
2018-07-21T00:45:06.888Z,0
2018-07-21T00:46:15.538Z,0
2018-07-21T00:47:24.182Z,0
2018-07-21T00:48:32.831Z,0
2018-07-21T00:49:41.479Z,0
2018-07-21T00:50:50.133Z,0
2018-07-21T00:51:58.772Z,0
2018-07-21T00:53:07.680Z,0
2018-07-21T00:54:16.595Z,0
2018-07-21T00:55:25.249Z,0
2018-07-21T00:56:33.892Z,0
2018-07-21T00:57:42.551Z,0
2018-07-21T00:58:51.197Z,0
2018-07-21T01:00:00.123Z,0
2018-07-21T01:01:08.773Z,0
2018-07-21T01:02:17.682Z,0
2018-07-21T01:03:26.327Z,0
2018-07-21T01:04:34.971Z,0
2018-07-21T01:05:43.630Z,0
2018-07-21T01:06:52.539Z,0
2018-07-21T01:08:01.189Z,0
2018-07-21T01:09:09.837Z,0
2018-07-21T01:10:18.485Z,0
2018-07-21T01:11:27.133Z,0
2018-07-21T01:12:35.779Z,0
2018-07-21T01:13:44.424Z,0
2018-07-21T01:14:53.074Z,0
2018-07-21T01:16:01.721Z,0
2018-07-21T01:17:10.373Z,0
2018-07-21T01:18:19.016Z,0
2018-07-21T01:19:27.668Z,0
2018-07-21T01:20:36.316Z,0
2018-07-21T01:21:44.963Z,0
2018-07-21T01:22:53.871Z,0
2018-07-21T01:24:02.786Z,0
2018-07-21T01:25:11.433Z,0
2018-07-21T01:26:20.080Z,0
2018-07-21T01:27:28.722Z,0
2018-07-21T01:28:37.377Z,0
2018-07-21T01:29:46.287Z,0
2018-07-21T01:30:54.934Z,0
2018-07-21T01:32:03.581Z,0
2018-07-21T01:33:12.494Z,0
2018-07-21T01:34:21.143Z,0
2018-07-21T01:35:29.789Z,0
2018-07-21T01:36:38.964Z,0
2018-07-21T01:37:47.873Z,0
2018-07-21T01:38:56.790Z,0
2018-07-21T01:40:05.440Z,0
2018-07-21T01:41:14.092Z,0
2018-07-21T01:42:22.735Z,0
2018-07-21T01:43:31.382Z,0
2018-07-21T01:44:40.031Z,0
2018-07-21T01:45:48.684Z,0
2018-07-21T01:46:57.328Z,0
2018-07-21T01:48:05.978Z,0
2018-07-21T01:49:14.618Z,0
2018-07-21T01:50:23.272Z,0
2018-07-21T01:51:31.915Z,0
2018-07-21T01:52:40.568Z,0
2018-07-21T01:53:49.215Z,0
2018-07-21T01:54:57.865Z,0
2018-07-21T01:56:06.509Z,0
2018-07-21T01:57:15.156Z,0
2018-07-21T01:58:23.804Z,0
2018-07-21T01:59:32.446Z,0
2018-07-21T02:00:41.099Z,0
2018-07-21T02:01:49.746Z,0
2018-07-21T02:02:58.396Z,0
2018-07-21T02:04:07.311Z,0
2018-07-21T02:05:15.963Z,0
2018-07-21T02:06:24.610Z,0
2018-07-21T02:07:33.258Z,0
2018-07-21T02:08:41.902Z,0
2018-07-21T02:09:50.555Z,0
2018-07-21T02:10:59.201Z,0
2018-07-21T02:12:07.851Z,0
2018-07-21T02:13:16.493Z,0
2018-07-21T02:14:25.141Z,0
2018-07-21T02:15:33.790Z,0
2018-07-21T02:16:42.444Z,0
2018-07-21T02:17:51.357Z,0
2018-07-21T02:19:00.001Z,0
2018-07-21T02:20:08.650Z,0
2018-07-21T02:21:17.295Z,0
2018-07-21T02:22:26.259Z,0
2018-07-21T02:23:34.856Z,0
2018-07-21T02:24:43.780Z,0
2018-07-21T02:25:52.423Z,0
2018-07-21T02:27:01.081Z,0
2018-07-21T02:28:09.718Z,0
2018-07-21T02:29:18.369Z,0
2018-07-21T02:30:27.317Z,0
2018-07-21T02:31:35.978Z,0
2018-07-21T02:32:44.626Z,0
2018-07-21T02:33:53.833Z,0
2018-07-21T02:35:02.478Z,0
2018-07-21T02:36:11.123Z,0
2018-07-21T02:37:19.779Z,0
2018-07-21T02:38:28.685Z,0
2018-07-21T02:39:37.347Z,0
2018-07-21T02:40:46.517Z,0
2018-07-21T02:41:55.715Z,0
2018-07-21T02:43:04.616Z,0
2018-07-21T02:44:13.276Z,0
2018-07-21T02:45:22.173Z,0
2018-07-21T02:46:30.834Z,0
2018-07-21T02:47:39.486Z,0
2018-07-21T02:48:48.135Z,0
2018-07-21T02:49:56.775Z,0
2018-07-21T02:51:05.956Z,0
2018-07-21T02:52:14.608Z,0
2018-07-21T02:53:23.256Z,0
2018-07-21T02:54:31.910Z,0
2018-07-21T02:55:40.549Z,0
2018-07-21T02:56:49.203Z,0
2018-07-21T02:57:57.849Z,0
2018-07-21T02:59:06.767Z,0
2018-07-21T03:00:15.413Z,0
2018-07-21T03:01:24.469Z,0
2018-07-21T03:02:33.662Z,0
2018-07-21T03:03:43.040Z,0
2018-07-21T03:04:52.038Z,0
2018-07-21T03:06:00.693Z,4
2018-07-21T03:07:09.338Z,4
2018-07-21T03:08:18.000Z,0
2018-07-21T03:09:26.909Z,0
2018-07-21T03:10:35.555Z,4
2018-07-21T03:11:44.202Z,4
2018-07-21T03:12:52.848Z,4
2018-07-21T03:14:02.045Z,4
2018-07-21T03:15:10.694Z,4
2018-07-21T03:16:19.353Z,8
2018-07-21T03:17:28.255Z,8
2018-07-21T03:18:37.177Z,8
2018-07-21T03:19:46.091Z,8
2018-07-21T03:20:55.019Z,8
2018-07-21T03:22:03.658Z,12
2018-07-21T03:23:12.650Z,12
2018-07-21T03:24:21.245Z,12
2018-07-21T03:25:30.163Z,12
2018-07-21T03:26:38.806Z,16
2018-07-21T03:27:47.726Z,16
2018-07-21T03:28:56.375Z,16
2018-07-21T03:30:05.026Z,16
2018-07-21T03:31:13.690Z,20
2018-07-21T03:32:22.337Z,20
2018-07-21T03:33:30.985Z,24
2018-07-21T03:34:39.632Z,24
2018-07-21T03:35:48.283Z,24
2018-07-21T03:36:56.929Z,28
2018-07-21T03:38:05.574Z,28
2018-07-21T03:39:14.228Z,28
2018-07-21T03:40:23.143Z,32
2018-07-21T03:41:32.054Z,32
2018-07-21T03:42:41.234Z,32
2018-07-21T03:43:50.147Z,36
2018-07-21T03:44:58.799Z,40
2018-07-21T03:46:07.446Z,40
2018-07-21T03:47:16.095Z,40
2018-07-21T03:48:24.741Z,44
2018-07-21T03:49:33.392Z,44
2018-07-21T03:50:42.302Z,48
2018-07-21T03:51:50.949Z,52
2018-07-21T03:52:59.859Z,60
2018-07-21T03:54:08.502Z,64
2018-07-21T03:55:17.519Z,64
2018-07-21T03:56:26.425Z,72
2018-07-21T03:57:35.076Z,80
2018-07-21T03:58:43.717Z,84
2018-07-21T03:59:52.636Z,92
2018-07-21T04:01:01.280Z,100
2018-07-21T04:02:09.932Z,100
2018-07-21T04:03:18.574Z,108
2018-07-21T04:04:27.490Z,116
2018-07-21T04:05:36.142Z,116
2018-07-21T04:06:44.792Z,120
2018-07-21T04:07:53.440Z,120
2018-07-21T04:09:02.164Z,124
2018-07-21T04:10:10.736Z,120
2018-07-21T04:11:19.385Z,124
2018-07-21T04:12:28.036Z,124
2018-07-21T04:13:36.679Z,128
2018-07-21T04:14:45.329Z,132
2018-07-21T04:15:53.974Z,132
2018-07-21T04:17:02.629Z,140
2018-07-21T04:18:11.277Z,148
2018-07-21T04:19:19.919Z,152
2018-07-21T04:20:28.565Z,156
2018-07-21T04:21:37.490Z,164
2018-07-21T04:22:46.137Z,172
2018-07-21T04:23:54.781Z,180
2018-07-21T04:25:03.426Z,176
2018-07-21T04:26:12.357Z,180
2018-07-21T04:27:21.281Z,180
2018-07-21T04:28:29.929Z,176
2018-07-21T04:29:38.580Z,180
2018-07-21T04:30:47.220Z,176
2018-07-21T04:31:55.881Z,176
2018-07-21T04:33:04.788Z,172
2018-07-21T04:34:13.705Z,164
2018-07-21T04:35:22.340Z,156
2018-07-21T04:36:31.264Z,156
2018-07-21T04:37:39.911Z,148
2018-07-21T04:38:48.561Z,148
2018-07-21T04:39:57.202Z,144
2018-07-21T04:41:05.852Z,140
2018-07-21T04:42:14.516Z,136
2018-07-21T04:43:23.694Z,136
2018-07-21T04:44:32.343Z,140
2018-07-21T04:45:40.979Z,144
2018-07-21T04:46:49.895Z,148
2018-07-21T04:47:58.539Z,152
2018-07-21T04:49:07.198Z,152
2018-07-21T04:50:15.839Z,160
2018-07-21T04:51:24.749Z,164
2018-07-21T04:52:33.396Z,168
2018-07-21T04:53:42.053Z,176
2018-07-21T04:54:50.692Z,184
2018-07-21T04:55:59.342Z,196
2018-07-21T04:57:07.991Z,216
2018-07-21T04:58:16.648Z,240
2018-07-21T04:59:25.304Z,272
2018-07-21T05:00:34.244Z,300
2018-07-21T05:01:42.846Z,340
2018-07-21T05:02:51.492Z,376
2018-07-21T05:04:00.149Z,392
2018-07-21T05:05:09.055Z,412
2018-07-21T05:06:17.704Z,444
2018-07-21T05:07:26.651Z,484
2018-07-21T05:08:35.300Z,536
2018-07-21T05:09:43.944Z,564
2018-07-21T05:10:52.595Z,592
2018-07-21T05:12:01.238Z,620
2018-07-21T05:13:10.160Z,640
2018-07-21T05:14:18.808Z,664
2018-07-21T05:15:27.453Z,688
2018-07-21T05:16:36.376Z,708
2018-07-21T05:17:45.024Z,732
2018-07-21T05:18:54.189Z,764
2018-07-21T05:20:03.178Z,796
2018-07-21T05:21:11.815Z,832
2018-07-21T05:22:20.478Z,872
2018-07-21T05:23:29.122Z,928
2018-07-21T05:24:37.770Z,984
2018-07-21T05:25:46.410Z,1028
2018-07-21T05:26:55.334Z,1084
2018-07-21T05:28:03.979Z,1132
2018-07-21T05:29:13.420Z,1180
2018-07-21T05:30:22.058Z,1220
2018-07-21T05:31:30.716Z,1256
2018-07-21T05:32:39.361Z,1280
2018-07-21T05:33:48.009Z,1308
2018-07-21T05:34:56.647Z,1336
2018-07-21T05:36:05.300Z,1384
2018-07-21T05:37:13.954Z,1468
2018-07-21T05:38:22.609Z,1488
2018-07-21T05:39:31.523Z,1540
2018-07-21T05:40:40.162Z,1600
2018-07-21T05:41:48.817Z,1648
2018-07-21T05:42:57.461Z,1680
2018-07-21T05:44:06.123Z,1700
2018-07-21T05:45:14.759Z,1700
2018-07-21T05:46:23.674Z,1692
2018-07-21T05:47:32.317Z,1688
2018-07-21T05:48:40.978Z,1712
2018-07-21T05:49:49.876Z,1736
2018-07-21T05:50:58.529Z,1752
2018-07-21T05:52:07.174Z,1760
2018-07-21T05:53:16.135Z,1748
2018-07-21T05:54:24.743Z,1716
2018-07-21T05:55:33.387Z,1668
2018-07-21T05:56:42.034Z,1636
2018-07-21T05:57:50.684Z,1608
2018-07-21T05:58:59.340Z,1584
2018-07-21T06:00:07.986Z,1576
2018-07-21T06:01:16.899Z,1568
2018-07-21T06:02:25.798Z,1572
2018-07-21T06:03:34.459Z,1604
2018-07-21T06:04:43.099Z,1640
2018-07-21T06:05:52.016Z,1664
2018-07-21T06:07:00.655Z,1700
2018-07-21T06:08:09.578Z,1748
2018-07-21T06:09:18.220Z,1824
2018-07-21T06:10:26.873Z,1892
2018-07-21T06:11:35.511Z,1944
2018-07-21T06:12:44.162Z,2008
2018-07-21T06:13:52.818Z,2116
2018-07-21T06:15:01.463Z,2228
2018-07-21T06:16:10.382Z,2328
2018-07-21T06:17:19.024Z,2404
2018-07-21T06:18:27.671Z,2440
2018-07-21T06:19:36.593Z,2472
2018-07-21T06:20:45.247Z,2480
2018-07-21T06:21:53.892Z,2464
2018-07-21T06:23:02.541Z,2448
2018-07-21T06:24:11.186Z,2436
2018-07-21T06:25:20.010Z,2464
2018-07-21T06:26:29.024Z,2528
2018-07-21T06:27:37.941Z,2624
2018-07-21T06:28:46.588Z,2708
2018-07-21T06:29:55.246Z,2780
2018-07-21T06:31:03.890Z,2844
2018-07-21T06:32:12.797Z,2828
2018-07-21T06:33:21.442Z,2768
2018-07-21T06:34:30.092Z,2680
2018-07-21T06:35:38.896Z,2656
2018-07-21T06:36:47.391Z,2548
2018-07-21T06:37:56.041Z,2464
2018-07-21T06:39:04.686Z,2472
2018-07-21T06:40:13.339Z,2500
2018-07-21T06:41:21.988Z,2584
2018-07-21T06:42:30.635Z,2596
2018-07-21T06:43:39.281Z,2668
2018-07-21T06:44:47.933Z,2644
2018-07-21T06:45:56.582Z,2532
2018-07-21T06:47:05.234Z,2560
2018-07-21T06:48:13.880Z,2660
2018-07-21T06:49:22.794Z,2744
2018-07-21T06:50:31.443Z,2808
2018-07-21T06:51:40.098Z,2908
2018-07-21T06:52:48.749Z,3268
2018-07-21T06:53:57.655Z,3504
2018-07-21T06:55:06.575Z,3424
2018-07-21T06:56:15.228Z,3880
2018-07-21T06:57:23.883Z,4156
2018-07-21T06:58:32.528Z,4044
2018-07-21T06:59:41.175Z,4020
2018-07-21T07:00:49.829Z,3588
2018-07-21T07:01:58.477Z,3456
2018-07-21T07:03:07.123Z,3388
2018-07-21T07:04:15.775Z,3344
2018-07-21T07:05:24.422Z,3448
2018-07-21T07:06:33.080Z,3276
2018-07-21T07:07:41.729Z,3224
2018-07-21T07:08:50.377Z,2816
2018-07-21T07:09:59.025Z,2712
2018-07-21T07:11:07.665Z,2900
2018-07-21T07:12:16.319Z,3432
2018-07-21T07:13:24.971Z,3584
2018-07-21T07:14:33.615Z,3324
2018-07-21T07:15:42.275Z,2756
2018-07-21T07:16:50.918Z,2660
2018-07-21T07:17:59.579Z,2820
2018-07-21T07:19:08.223Z,2636
2018-07-21T07:20:16.882Z,2740
2018-07-21T07:21:25.528Z,3004
2018-07-21T07:22:34.180Z,2856
2018-07-21T07:23:43.095Z,2872
2018-07-21T07:24:51.753Z,3064
2018-07-21T07:26:00.401Z,3476
2018-07-21T07:27:09.052Z,4136
2018-07-21T07:28:17.698Z,4676
2018-07-21T07:29:26.346Z,4992
2018-07-21T07:30:35.003Z,5028
2018-07-21T07:31:43.653Z,5160
2018-07-21T07:32:52.302Z,5208
2018-07-21T07:34:00.947Z,5200
2018-07-21T07:35:09.630Z,4648
2018-07-21T07:36:18.596Z,4004
2018-07-21T07:37:27.251Z,3320
2018-07-21T07:38:35.891Z,2984
2018-07-21T07:39:44.551Z,2824
2018-07-21T07:40:53.198Z,2744
2018-07-21T07:42:01.875Z,2496
2018-07-21T07:43:10.491Z,2468
2018-07-21T07:44:19.417Z,2960
2018-07-21T07:45:28.069Z,3108
2018-07-21T07:46:36.724Z,2968
2018-07-21T07:47:45.643Z,2840
2018-07-21T07:48:54.281Z,3100
2018-07-21T07:50:02.937Z,2808
2018-07-21T07:51:11.583Z,2648
2018-07-21T07:52:20.504Z,2628
2018-07-21T07:53:29.206Z,2852
2018-07-21T07:54:37.800Z,3180
2018-07-21T07:55:46.445Z,3268
2018-07-21T07:56:55.103Z,3332
2018-07-21T07:58:04.006Z,3348
2018-07-21T07:59:12.923Z,3284
2018-07-21T08:00:21.578Z,3316
2018-07-21T08:01:30.234Z,3436
2018-07-21T08:02:38.883Z,3668
2018-07-21T08:03:47.529Z,4056
2018-07-21T08:04:56.181Z,4164
2018-07-21T08:06:04.825Z,4288
2018-07-21T08:07:13.484Z,4552
2018-07-21T08:08:22.174Z,4504
2018-07-21T08:09:30.789Z,4704
2018-07-21T08:10:39.690Z,4656
2018-07-21T08:11:48.364Z,4756
2018-07-21T08:12:56.998Z,4716
2018-07-21T08:14:05.692Z,4836
2018-07-21T08:15:14.582Z,4744
2018-07-21T08:16:23.238Z,4684
2018-07-21T08:17:32.154Z,4548
2018-07-21T08:18:40.804Z,4580
2018-07-21T08:19:49.451Z,4704
2018-07-21T08:20:58.104Z,4832
2018-07-21T08:22:06.755Z,4768
2018-07-21T08:23:15.409Z,4772
2018-07-21T08:24:24.064Z,4884
2018-07-21T08:25:32.709Z,5216
2018-07-21T08:26:41.622Z,5180
2018-07-21T08:27:50.273Z,5288
2018-07-21T08:28:58.959Z,5636
2018-07-21T08:30:07.575Z,5792
2018-07-21T08:31:16.225Z,5732
2018-07-21T08:32:24.876Z,5616
2018-07-21T08:33:33.532Z,5528
2018-07-21T08:34:42.577Z,5452
2018-07-21T08:35:51.197Z,5448
2018-07-21T08:36:59.853Z,5572
2018-07-21T08:38:08.508Z,5560
2018-07-21T08:39:17.157Z,5576
2018-07-21T08:40:25.808Z,5576
2018-07-21T08:41:34.457Z,5500
2018-07-21T08:42:43.382Z,5440
2018-07-21T08:43:52.038Z,5340
2018-07-21T08:45:00.690Z,5280
2018-07-21T08:46:09.602Z,5300
2018-07-21T08:47:18.289Z,5352
2018-07-21T08:48:26.911Z,5452
2018-07-21T08:49:35.834Z,5584
2018-07-21T08:50:44.487Z,6040
2018-07-21T08:51:53.407Z,6524
2018-07-21T08:53:02.048Z,6732
2018-07-21T08:54:10.698Z,6628
2018-07-21T08:55:19.615Z,6300
2018-07-21T08:56:28.266Z,6104
2018-07-21T08:57:37.191Z,5812
2018-07-21T08:58:45.843Z,5556
2018-07-21T08:59:54.766Z,5452
2018-07-21T09:01:03.419Z,5492
2018-07-21T09:02:12.064Z,5564
2018-07-21T09:03:20.716Z,5528
2018-07-21T09:04:29.375Z,5552
2018-07-21T09:05:38.085Z,5600
2018-07-21T09:06:46.679Z,5636
2018-07-21T09:07:55.333Z,5732
2018-07-21T09:09:04.584Z,5652
2018-07-21T09:10:13.519Z,5596
2018-07-21T09:11:22.439Z,5484
2018-07-21T09:12:31.092Z,5420
2018-07-21T09:13:39.744Z,5360
2018-07-21T09:14:48.389Z,5220
2018-07-21T09:15:57.051Z,5104
2018-07-21T09:17:05.701Z,5024
2018-07-21T09:18:14.359Z,4976
2018-07-21T09:19:23.008Z,4940
2018-07-21T09:20:31.656Z,4952
2018-07-21T09:21:40.307Z,4980
2018-07-21T09:22:48.962Z,5048
2018-07-21T09:23:57.625Z,5204
2018-07-21T09:25:06.533Z,5360
2018-07-21T09:26:15.188Z,5588
2018-07-21T09:27:23.836Z,5668
2018-07-21T09:28:32.491Z,5880
2018-07-21T09:29:41.144Z,6076
2018-07-21T09:30:49.798Z,6096
2018-07-21T09:31:58.446Z,6048
2018-07-21T09:33:07.104Z,5900
2018-07-21T09:34:16.163Z,5788
2018-07-21T09:35:24.743Z,5856
2018-07-21T09:36:33.392Z,5948
2018-07-21T09:37:42.040Z,6048
2018-07-21T09:38:50.958Z,6024
2018-07-21T09:39:59.870Z,6248
2018-07-21T09:41:08.523Z,6572
2018-07-21T09:42:17.173Z,6984
2018-07-21T09:43:25.829Z,7392
2018-07-21T09:44:34.482Z,7384
2018-07-21T09:45:43.135Z,7240
2018-07-21T09:46:51.786Z,6884
2018-07-21T09:48:00.446Z,6616
2018-07-21T09:49:09.116Z,5872
2018-07-21T09:50:17.757Z,5584
2018-07-21T09:51:26.400Z,5304
2018-07-21T09:52:35.056Z,5088
2018-07-21T09:53:43.707Z,5428
2018-07-21T09:54:52.361Z,5124
2018-07-21T09:56:01.173Z,4820
2018-07-21T09:57:09.669Z,4588
2018-07-21T09:58:18.321Z,4592
2018-07-21T09:59:26.976Z,4584
2018-07-21T10:00:35.637Z,4652
2018-07-21T10:01:44.547Z,4652
2018-07-21T10:02:53.199Z,4628
2018-07-21T10:04:01.855Z,4472
2018-07-21T10:05:10.513Z,4528
2018-07-21T10:06:19.161Z,5020
2018-07-21T10:07:27.817Z,5632
2018-07-21T10:08:36.728Z,6312
2018-07-21T10:09:45.390Z,6116
2018-07-21T10:10:54.048Z,6120
2018-07-21T10:12:02.691Z,6056
2018-07-21T10:13:11.606Z,5868
2018-07-21T10:14:20.256Z,5720
2018-07-21T10:15:28.973Z,5424
2018-07-21T10:16:37.575Z,5336
2018-07-21T10:17:46.233Z,5176
2018-07-21T10:18:54.877Z,5372
2018-07-21T10:20:03.538Z,5320
2018-07-21T10:21:12.190Z,5320
2018-07-21T10:22:21.115Z,5048
2018-07-21T10:23:30.019Z,5236
2018-07-21T10:24:38.681Z,5484
2018-07-21T10:25:47.334Z,5724
2018-07-21T10:26:55.989Z,5932
2018-07-21T10:28:04.676Z,6168
2018-07-21T10:29:13.292Z,6224
2018-07-21T10:30:21.955Z,6116
2018-07-21T10:31:30.608Z,6184
2018-07-21T10:32:39.267Z,6032
2018-07-21T10:33:47.907Z,6004
2018-07-21T10:34:56.567Z,6108
2018-07-21T10:36:05.239Z,6164
2018-07-21T10:37:13.881Z,6232
2018-07-21T10:38:22.524Z,6248
2018-07-21T10:39:31.182Z,6312
2018-07-21T10:40:39.832Z,6236
2018-07-21T10:41:48.497Z,6188
2018-07-21T10:42:57.138Z,6168
2018-07-21T10:44:05.798Z,6048
2018-07-21T10:45:14.461Z,5936
2018-07-21T10:46:23.108Z,6144
2018-07-21T10:47:31.761Z,6392
2018-07-21T10:48:40.418Z,6084
2018-07-21T10:49:49.329Z,6020
2018-07-21T10:50:57.981Z,5852
2018-07-21T10:52:06.647Z,5816
2018-07-21T10:53:15.299Z,5628
2018-07-21T10:54:23.953Z,5540
2018-07-21T10:55:32.603Z,5276
2018-07-21T10:56:41.261Z,5260
2018-07-21T10:57:49.912Z,5592
2018-07-21T10:58:58.577Z,5452
2018-07-21T11:00:07.225Z,5492
2018-07-21T11:01:15.888Z,5864
2018-07-21T11:02:24.538Z,6256
2018-07-21T11:03:33.192Z,6524
2018-07-21T11:04:41.841Z,6448
2018-07-21T11:05:50.497Z,6328
2018-07-21T11:06:59.154Z,6464
2018-07-21T11:08:07.871Z,6960
2018-07-21T11:09:17.082Z,7580
2018-07-21T11:10:25.730Z,7984
2018-07-21T11:11:34.385Z,6880
2018-07-21T11:12:43.038Z,6556
2018-07-21T11:13:51.697Z,6060
2018-07-21T11:15:00.362Z,5780
2018-07-21T11:16:09.276Z,5932
2018-07-21T11:17:17.929Z,6080
2018-07-21T11:18:26.588Z,6444
2018-07-21T11:19:35.238Z,6908
2018-07-21T11:20:44.158Z,7228
2018-07-21T11:21:53.107Z,7432
2018-07-21T11:23:02.026Z,7292
2018-07-21T11:24:10.676Z,6724
2018-07-21T11:25:19.329Z,6720
2018-07-21T11:26:27.984Z,6860
2018-07-21T11:27:36.900Z,6768
2018-07-21T11:28:45.557Z,6520
2018-07-21T11:29:54.212Z,6436
2018-07-21T11:31:02.866Z,6020
2018-07-21T11:32:11.517Z,5996
2018-07-21T11:33:20.178Z,5912
2018-07-21T11:34:28.834Z,5588
2018-07-21T11:35:37.622Z,5640
2018-07-21T11:36:46.409Z,5536
2018-07-21T11:37:55.069Z,5496
2018-07-21T11:39:03.999Z,5376
2018-07-21T11:40:12.655Z,5252
2018-07-21T11:41:21.304Z,5108
2018-07-21T11:42:29.959Z,5036
2018-07-21T11:43:38.614Z,4932
2018-07-21T11:44:47.539Z,4852
2018-07-21T11:45:56.196Z,4732
2018-07-21T11:47:05.117Z,4748
2018-07-21T11:48:13.773Z,4668
2018-07-21T11:49:22.428Z,4644
2018-07-21T11:50:31.089Z,4644
2018-07-21T11:51:39.738Z,4620
2018-07-21T11:52:48.403Z,4664
2018-07-21T11:53:57.047Z,4684
2018-07-21T11:55:05.706Z,4696
2018-07-21T11:56:14.355Z,4708
2018-07-21T11:57:23.010Z,4684
2018-07-21T11:58:31.667Z,4680
2018-07-21T11:59:40.327Z,4660
2018-07-21T12:00:48.979Z,4648
2018-07-21T12:01:57.649Z,4640
2018-07-21T12:03:06.300Z,4652
2018-07-21T12:04:15.214Z,4652
2018-07-21T12:05:23.897Z,4668
2018-07-21T12:06:32.919Z,4696
2018-07-21T12:07:41.578Z,4728
2018-07-21T12:08:50.224Z,4724
2018-07-21T12:09:58.889Z,4712
2018-07-21T12:11:07.543Z,4680
2018-07-21T12:12:16.201Z,4656
2018-07-21T12:13:24.946Z,4540
2018-07-21T12:14:33.516Z,4540
2018-07-21T12:15:42.166Z,4512
2018-07-21T12:16:50.822Z,4488
2018-07-21T12:17:59.730Z,4476
2018-07-21T12:19:08.651Z,4444
2018-07-21T12:20:17.344Z,4384
2018-07-21T12:21:25.967Z,4424
2018-07-21T12:22:34.630Z,4368
2018-07-21T12:23:43.274Z,4324
2018-07-21T12:24:51.932Z,4312
2018-07-21T12:26:00.584Z,4096
2018-07-21T12:27:09.516Z,4284
2018-07-21T12:28:18.162Z,4296
2018-07-21T12:29:26.818Z,4296
2018-07-21T12:30:35.730Z,4268
2018-07-21T12:31:44.657Z,4424
2018-07-21T12:32:53.301Z,4472
2018-07-21T12:34:01.962Z,4552
2018-07-21T12:35:10.881Z,4564
2018-07-21T12:36:19.548Z,4544
2018-07-21T12:37:28.199Z,4580
2018-07-21T12:38:36.849Z,4608
2018-07-21T12:39:45.504Z,4652
2018-07-21T12:40:54.159Z,4744
2018-07-21T12:42:02.823Z,4852
2018-07-21T12:43:11.474Z,4912
2018-07-21T12:44:20.404Z,4892
2018-07-21T12:45:29.058Z,4820
2018-07-21T12:46:37.720Z,4744
2018-07-21T12:47:46.372Z,4692
2018-07-21T12:48:55.034Z,4656
2018-07-21T12:50:03.679Z,4636
2018-07-21T12:51:12.352Z,4664
2018-07-21T12:52:21.264Z,4572
2018-07-21T12:53:30.195Z,4424
2018-07-21T12:54:38.841Z,4324
2018-07-21T12:55:47.501Z,4028
2018-07-21T12:56:56.162Z,3748
2018-07-21T12:58:04.821Z,3780
2018-07-21T12:59:13.481Z,3980
2018-07-21T13:00:22.123Z,4076
2018-07-21T13:01:31.049Z,3988
2018-07-21T13:02:39.698Z,4292
2018-07-21T13:03:48.363Z,3996
2018-07-21T13:04:57.016Z,4084
2018-07-21T13:06:05.667Z,4092
2018-07-21T13:07:14.589Z,4312
2018-07-21T13:08:23.232Z,4608
2018-07-21T13:09:31.896Z,4840
2018-07-21T13:10:40.549Z,5020
2018-07-21T13:11:49.205Z,5236
2018-07-21T13:12:57.854Z,5124
2018-07-21T13:14:06.514Z,5892
2018-07-21T13:15:15.438Z,5572
2018-07-21T13:16:24.087Z,5380
2018-07-21T13:17:32.743Z,5512
2018-07-21T13:18:41.392Z,5512
2018-07-21T13:19:50.086Z,5448
2018-07-21T13:20:58.712Z,5564
2018-07-21T13:22:07.378Z,5508
2018-07-21T13:23:16.027Z,5672
2018-07-21T13:24:24.686Z,5872
2018-07-21T13:25:33.339Z,6140
2018-07-21T13:26:42.004Z,6396
2018-07-21T13:27:51.190Z,6604
2018-07-21T13:28:59.853Z,6732
2018-07-21T13:30:08.771Z,6828
2018-07-21T13:31:17.442Z,6872
2018-07-21T13:32:26.096Z,6888
2018-07-21T13:33:34.756Z,6880
2018-07-21T13:34:43.675Z,6852
2018-07-21T13:35:52.329Z,6844
2018-07-21T13:37:01.008Z,6856
2018-07-21T13:38:09.982Z,6848
2018-07-21T13:39:18.643Z,6856
2018-07-21T13:40:27.291Z,7480
2018-07-21T13:41:35.956Z,6940
2018-07-21T13:42:44.609Z,7484
2018-07-21T13:43:53.275Z,7012
2018-07-21T13:45:01.919Z,7040
2018-07-21T13:46:10.591Z,7120
2018-07-21T13:47:19.506Z,7132
2018-07-21T13:48:28.168Z,7092
2018-07-21T13:49:36.815Z,7168
2018-07-21T13:50:45.473Z,6904
2018-07-21T13:51:54.398Z,7152
2018-07-21T13:53:03.057Z,7312
2018-07-21T13:54:11.718Z,8176
2018-07-21T13:55:20.363Z,8224
2018-07-21T13:56:29.022Z,8076
2018-07-21T13:57:37.677Z,8052
2018-07-21T13:58:46.603Z,6676
2018-07-21T13:59:55.522Z,6412
2018-07-21T14:01:04.184Z,6396
2018-07-21T14:02:12.879Z,6328
2018-07-21T14:03:21.504Z,6300
2018-07-21T14:04:30.167Z,7220
2018-07-21T14:05:38.826Z,5960
2018-07-21T14:06:47.482Z,5688
2018-07-21T14:07:56.147Z,5532
2018-07-21T14:09:04.800Z,5464
2018-07-21T14:10:13.532Z,5460
2018-07-21T14:11:22.114Z,5444
2018-07-21T14:12:31.035Z,5376
2018-07-21T14:13:39.697Z,5276
2018-07-21T14:14:48.617Z,5152
2018-07-21T14:15:57.333Z,5068
2018-07-21T14:17:05.927Z,5016
2018-07-21T14:18:14.587Z,4976
2018-07-21T14:19:23.245Z,4948
2018-07-21T14:20:32.168Z,4920
2018-07-21T14:21:40.819Z,4832
2018-07-21T14:22:49.481Z,4716
2018-07-21T14:23:58.149Z,4664
2018-07-21T14:25:07.077Z,4408
2018-07-21T14:26:15.729Z,4264
2018-07-21T14:27:24.649Z,4320
2018-07-21T14:28:33.308Z,4164
2018-07-21T14:29:42.390Z,4144
2018-07-21T14:30:51.032Z,4120
2018-07-21T14:31:59.682Z,4068
2018-07-21T14:33:08.337Z,4020
2018-07-21T14:34:17.267Z,3960
2018-07-21T14:35:26.199Z,3928
2018-07-21T14:36:35.055Z,3968
2018-07-21T14:37:43.508Z,4080
2018-07-21T14:38:52.166Z,4168
2018-07-21T14:40:00.830Z,4220
2018-07-21T14:41:09.750Z,4336
2018-07-21T14:42:18.409Z,4500
2018-07-21T14:43:27.064Z,4500
2018-07-21T14:44:35.991Z,4520
2018-07-21T14:45:44.644Z,4944
2018-07-21T14:46:53.301Z,5152
2018-07-21T14:48:01.955Z,4904
2018-07-21T14:49:10.604Z,5228
2018-07-21T14:50:19.265Z,5244
2018-07-21T14:51:27.918Z,5440
2018-07-21T14:52:36.573Z,5424
2018-07-21T14:53:45.226Z,5332
2018-07-21T14:54:53.963Z,4644
2018-07-21T14:56:02.544Z,4572
2018-07-21T14:57:11.204Z,4556
2018-07-21T14:58:19.859Z,4572
2018-07-21T14:59:28.521Z,4456
2018-07-21T15:00:37.172Z,4696
2018-07-21T15:01:45.972Z,4248
2018-07-21T15:02:54.485Z,4052
2018-07-21T15:04:03.144Z,3976
2018-07-21T15:05:11.800Z,3932
2018-07-21T15:06:20.459Z,3864
2018-07-21T15:07:29.121Z,3752
2018-07-21T15:08:37.773Z,3636
2018-07-21T15:09:46.436Z,3540
2018-07-21T15:10:55.096Z,3532
2018-07-21T15:12:04.026Z,3532
2018-07-21T15:13:12.940Z,3532
2018-07-21T15:14:21.600Z,3604
2018-07-21T15:15:30.255Z,3648
2018-07-21T15:16:38.964Z,3748
2018-07-21T15:17:47.906Z,3784
2018-07-21T15:18:56.553Z,3840
2018-07-21T15:20:05.204Z,3872
2018-07-21T15:21:13.866Z,3800
2018-07-21T15:22:22.517Z,3704
2018-07-21T15:23:31.176Z,3668
2018-07-21T15:24:39.830Z,3648
2018-07-21T15:25:48.485Z,3672
2018-07-21T15:26:57.151Z,3696
2018-07-21T15:28:06.060Z,3632
2018-07-21T15:29:14.712Z,3532
2018-07-21T15:30:23.630Z,3420
2018-07-21T15:31:32.290Z,3332
2018-07-21T15:32:40.943Z,3232
2018-07-21T15:33:49.600Z,3172
2018-07-21T15:34:58.253Z,3116
2018-07-21T15:36:06.914Z,3052
2018-07-21T15:37:15.566Z,2952
2018-07-21T15:38:24.226Z,2812
2018-07-21T15:39:32.873Z,2652